Time,TemperatureF,DewpointF,PressureIn,WindDirection,WindDirectionDegrees,WindSpeedMPH,WindSpeedGustMPH,Humidity,HourlyPrecipIn,Conditions,Clouds,dailyrainin,SolarRadiationWatts/m^2,SoftwareType,DateUTC
2013-02-01 00:01:00,41.0,-6.0,-100.00,ENE,62,8.0,14.0,13,0.00,,,0.15,0.000000,,2013-02-01 07:01:00,
2013-02-01 00:52:00,42.0,-7.0,-100.00,NNE,33,3.0,10.0,12,0.00,,,-99.99,0.000000,,2013-02-01 07:52:00,
2013-02-01 01:01:00,42.0,-7.0,-100.00,NNE,33,3.0,10.0,12,0.00,,,-99.99,0.000000,,2013-02-01 08:01:00,
2013-02-01 01:52:00,45.0,-13.0,-100.00,NE,55,2.0,4.0,8,0.00,,,0.15,0.000000,,2013-02-01 08:52:00,
2013-02-01 02:01:00,45.0,-13.0,-100.00,NE,55,2.0,4.0,8,0.00,,,0.15,0.000000,,2013-02-01 09:01:00,
2013-02-01 02:52:00,44.0,-9.0,-100.00,SSE,148,0.0,3.0,10,0.00,,,-99.99,0.000000,,2013-02-01 09:52:00,
2013-02-01 03:01:00,44.0,-9.0,-100.00,SSE,148,0.0,3.0,10,0.00,,,-99.99,0.000000,,2013-02-01 10:01:00,
2013-02-01 03:53:00,42.0,-11.0,-100.00,West,270,2.0,3.0,10,0.00,,,0.15,0.000000,,2013-02-01 10:53:00,
2013-02-01 04:01:00,42.0,-11.0,-100.00,West,270,2.0,3.0,10,0.00,,,0.15,0.000000,,2013-02-01 11:01:00,
2013-02-01 04:53:00,41.0,-8.0,-100.00,West,270,1.0,3.0,12,0.00,,,0.14,0.000000,,2013-02-01 11:53:00,
2013-02-01 05:02:00,41.0,-8.0,-100.00,West,270,1.0,3.0,12,0.00,,,0.14,0.000000,,2013-02-01 12:02:00,
2013-02-01 06:02:00,42.0,-11.0,-100.00,WNW,283,2.0,3.0,10,0.00,,,0.14,0.000000,,2013-02-01 13:02:00,
2013-02-01 06:53:00,42.0,-7.0,-100.00,West,280,1.0,3.0,12,0.00,,,0.14,0.000000,,2013-02-01 13:53:00,
2013-02-01 07:03:00,42.0,-7.0,-100.00,West,280,1.0,3.0,12,0.00,,,0.14,0.000000,,2013-02-01 14:03:00,
2013-02-01 08:02:00,45.0,-5.0,-100.00,WNW,299,3.0,4.0,12,0.00,,,0.14,8.000000,,2013-02-01 15:02:00,
2013-02-01 08:12:00,45.0,-5.0,-100.00,WNW,299,3.0,4.0,12,0.00,,,0.14,8.000000,,2013-02-01 15:12:00,
2013-02-01 09:02:00,53.0,0.0,-100.00,West,260,2.0,7.0,11,0.00,,,0.14,193.000000,,2013-02-01 16:02:00,
2013-02-01 09:11:00,53.0,0.0,-100.00,West,260,2.0,7.0,11,0.00,,,0.14,193.000000,,2013-02-01 16:11:00,
2013-02-01 09:21:00,53.0,0.0,-100.00,West,260,2.0,7.0,11,0.00,,,0.14,193.000000,,2013-02-01 16:21:00,
2013-02-01 09:32:00,53.0,0.0,-100.00,West,260,2.0,7.0,11,0.00,,,0.14,193.000000,,2013-02-01 16:32:00,
2013-02-01 09:52:00,57.0,8.0,-100.00,SSE,149,3.0,6.0,14,0.00,,,0.14,459.000000,,2013-02-01 16:52:00,
2013-02-01 10:02:00,57.0,8.0,-100.00,SSE,149,3.0,6.0,14,0.00,,,0.14,459.000000,,2013-02-01 17:02:00,
2013-02-01 10:11:00,57.0,8.0,-100.00,SSE,149,3.0,6.0,14,0.00,,,0.14,459.000000,,2013-02-01 17:11:00,
2013-02-01 10:22:00,57.0,8.0,-100.00,SSE,149,3.0,6.0,14,0.00,,,0.14,459.000000,,2013-02-01 17:22:00,
2013-02-01 10:31:00,57.0,8.0,-100.00,SSE,149,3.0,6.0,14,0.00,,,0.14,459.000000,,2013-02-01 17:31:00,
2013-02-01 11:02:00,59.0,16.0,-100.00,ESE,121,3.0,5.0,18,0.01,,,0.15,685.000000,,2013-02-01 18:02:00,
2013-02-01 11:12:00,59.0,16.0,-100.00,ESE,121,3.0,5.0,18,0.01,,,0.15,685.000000,,2013-02-01 18:12:00,
2013-02-01 11:22:00,59.0,16.0,-100.00,ESE,121,3.0,5.0,18,0.01,,,0.15,685.000000,,2013-02-01 18:22:00,
2013-02-01 11:31:00,59.0,16.0,-100.00,ESE,121,3.0,5.0,18,0.01,,,0.15,685.000000,,2013-02-01 18:31:00,
2013-02-01 12:02:00,57.0,20.0,-100.00,South,169,4.0,6.0,23,0.00,,,0.13,841.000000,,2013-02-01 19:02:00,
2013-02-01 12:11:00,57.0,20.0,-100.00,South,169,4.0,6.0,23,0.00,,,0.13,841.000000,,2013-02-01 19:11:00,
2013-02-01 12:21:00,57.0,20.0,-100.00,South,169,4.0,6.0,23,0.00,,,0.13,841.000000,,2013-02-01 19:21:00,
2013-02-01 12:31:00,57.0,20.0,-100.00,South,169,4.0,6.0,23,0.00,,,0.13,841.000000,,2013-02-01 19:31:00,
2013-02-01 13:02:00,59.0,21.0,-100.00,SSE,167,3.0,8.0,23,0.00,,,0.09,934.000000,,2013-02-01 20:02:00,
2013-02-01 13:11:00,59.0,21.0,-100.00,SSE,167,3.0,8.0,23,0.00,,,0.09,934.000000,,2013-02-01 20:11:00,
2013-02-01 13:21:00,59.0,21.0,-100.00,SSE,167,3.0,8.0,23,0.00,,,0.09,934.000000,,2013-02-01 20:21:00,
2013-02-01 13:31:00,59.0,21.0,-100.00,SSE,167,3.0,8.0,23,0.00,,,0.09,934.000000,,2013-02-01 20:31:00,
2013-02-01 13:52:00,58.0,21.0,-100.00,SE,146,4.0,7.0,24,0.00,,,0.05,934.000000,,2013-02-01 20:52:00,
2013-02-01 14:01:00,58.0,21.0,-100.00,SE,146,4.0,7.0,24,0.00,,,0.05,934.000000,,2013-02-01 21:01:00,
2013-02-01 14:11:00,58.0,21.0,-100.00,SE,146,4.0,7.0,24,0.00,,,0.05,934.000000,,2013-02-01 21:11:00,
2013-02-01 14:21:00,58.0,21.0,-100.00,SE,146,4.0,7.0,24,0.00,,,0.05,934.000000,,2013-02-01 21:21:00,
2013-02-01 14:31:00,58.0,21.0,-100.00,SE,146,4.0,7.0,24,0.00,,,0.05,934.000000,,2013-02-01 21:31:00,
2013-02-01 14:52:00,57.0,24.0,-100.00,SSE,159,4.0,8.0,28,0.00,,,0.02,853.000000,,2013-02-01 21:52:00,
2013-02-01 15:02:00,57.0,24.0,-100.00,SSE,159,4.0,8.0,28,0.00,,,0.02,853.000000,,2013-02-01 22:02:00,
2013-02-01 15:11:00,57.0,24.0,-100.00,SSE,159,4.0,8.0,28,0.00,,,0.02,853.000000,,2013-02-01 22:11:00,
2013-02-01 15:21:00,57.0,24.0,-100.00,SSE,159,4.0,8.0,28,0.00,,,0.02,853.000000,,2013-02-01 22:21:00,
2013-02-01 15:32:00,57.0,24.0,-100.00,SSE,159,4.0,8.0,28,0.00,,,0.02,853.000000,,2013-02-01 22:32:00,
2013-02-01 16:01:00,57.0,23.0,-100.00,South,175,3.0,9.0,27,0.00,,,0.01,680.000000,,2013-02-01 23:01:00,
2013-02-01 16:11:00,57.0,23.0,-100.00,South,175,3.0,9.0,27,0.00,,,0.01,680.000000,,2013-02-01 23:11:00,
2013-02-01 16:21:00,57.0,23.0,-100.00,South,175,3.0,9.0,27,0.00,,,0.01,680.000000,,2013-02-01 23:21:00,
2013-02-01 16:31:00,57.0,23.0,-100.00,South,175,3.0,9.0,27,0.00,,,0.01,680.000000,,2013-02-01 23:31:00,
2013-02-01 16:52:00,53.0,23.0,-100.00,South,180,2.0,7.0,31,0.00,,,0.01,436.000000,,2013-02-01 23:52:00,
2013-02-01 17:02:00,53.0,23.0,-100.00,South,180,2.0,7.0,31,0.00,,,0.01,436.000000,,2013-02-02 00:02:00,
2013-02-01 17:11:00,53.0,23.0,-100.00,South,180,2.0,7.0,31,0.00,,,0.01,436.000000,,2013-02-02 00:11:00,
2013-02-01 17:21:00,53.0,23.0,-100.00,South,180,2.0,7.0,31,0.00,,,0.01,436.000000,,2013-02-02 00:21:00,
2013-02-01 17:32:00,53.0,23.0,-100.00,South,180,2.0,7.0,31,0.00,,,0.01,436.000000,,2013-02-02 00:32:00,
2013-02-01 18:02:00,49.0,16.0,-100.00,NW,304,2.0,5.0,27,0.00,,,0.01,145.000000,,2013-02-02 01:02:00,
2013-02-01 18:11:00,49.0,16.0,-100.00,NW,304,2.0,5.0,27,0.00,,,0.01,145.000000,,2013-02-02 01:11:00,
2013-02-01 18:21:00,49.0,16.0,-100.00,NW,304,2.0,5.0,27,0.00,,,0.01,145.000000,,2013-02-02 01:21:00,
2013-02-01 18:31:00,49.0,16.0,-100.00,NW,304,2.0,5.0,27,0.00,,,0.01,145.000000,,2013-02-02 01:31:00,
2013-02-01 19:01:00,45.0,5.0,-100.00,NW,321,2.0,3.0,19,0.00,,,0.01,7.000000,,2013-02-02 02:01:00,
2013-02-01 19:11:00,45.0,5.0,-100.00,NW,321,2.0,3.0,19,0.00,,,0.01,7.000000,,2013-02-02 02:11:00,
2013-02-01 19:21:00,45.0,5.0,-100.00,NW,321,2.0,3.0,19,0.00,,,0.01,7.000000,,2013-02-02 02:21:00,
2013-02-01 19:31:00,45.0,5.0,-100.00,NW,321,2.0,3.0,19,0.00,,,0.01,7.000000,,2013-02-02 02:31:00,
2013-02-01 19:52:00,46.0,0.0,-100.00,West,267,3.0,6.0,14,0.00,,,0.01,0.000000,,2013-02-02 02:52:00,
2013-02-01 20:02:00,46.0,0.0,-100.00,West,267,3.0,6.0,14,0.00,,,0.01,0.000000,,2013-02-02 03:02:00,
2013-02-01 20:52:00,45.0,0.0,-100.00,WNW,303,3.0,6.0,15,0.00,,,0.01,0.000000,,2013-02-02 03:52:00,
2013-02-01 21:01:00,45.0,0.0,-100.00,WNW,303,3.0,6.0,15,0.00,,,0.01,0.000000,,2013-02-02 04:01:00,
2013-02-01 21:52:00,45.0,0.0,-100.00,West,276,4.0,7.0,15,0.00,,,0.01,0.000000,,2013-02-02 04:52:00,
2013-02-01 22:03:00,45.0,0.0,-100.00,West,276,4.0,7.0,15,0.00,,,0.01,0.000000,,2013-02-02 05:03:00,
2013-02-01 23:02:00,45.0,-3.0,-100.00,NNW,330,2.0,4.0,13,0.00,,,0.01,0.000000,,2013-02-02 06:02:00,